createdAt,value
2023-05-23T00:00:33.938Z,44.38
2023-05-23T00:03:25.226Z,44.57
2023-05-23T00:05:54.046Z,44.68
2023-05-23T00:08:22.855Z,44.82
2023-05-23T00:10:53.578Z,44.79
2023-05-23T00:13:24.139Z,44.95
2023-05-23T00:15:54.820Z,44.95
2023-05-23T00:18:25.153Z,45.00
2023-05-23T00:20:54.083Z,45.23
2023-05-23T00:23:26.524Z,45.08
2023-05-23T00:25:56.378Z,45.09
2023-05-23T00:28:26.521Z,45.30
2023-05-23T00:30:55.981Z,45.19
2023-05-23T00:33:26.225Z,45.25
2023-05-23T00:35:55.277Z,45.27
2023-05-23T00:38:26.252Z,45.50
2023-05-23T00:40:56.250Z,45.60
2023-05-23T00:43:26.143Z,45.83
2023-05-23T00:45:54.928Z,45.92
2023-05-23T00:48:24.373Z,46.10
2023-05-23T00:50:53.674Z,46.03
2023-05-23T00:53:23.478Z,46.09
2023-05-23T00:55:52.323Z,46.41
2023-05-23T00:58:21.727Z,46.56
2023-05-23T01:00:50.839Z,46.72
2023-05-23T01:03:23.070Z,46.61
2023-05-23T01:05:52.072Z,46.84
2023-05-23T01:08:21.706Z,46.78
2023-05-23T01:10:52.516Z,46.85
2023-05-23T01:13:25.880Z,46.82
2023-05-23T01:15:59.831Z,47.28
2023-05-23T01:18:55.260Z,47.35
2023-05-23T01:21:24.798Z,47.24
2023-05-23T01:23:56.069Z,47.40
2023-05-23T01:26:42.106Z,47.41
2023-05-23T01:29:38.571Z,47.60
2023-05-23T01:32:11.923Z,47.65
2023-05-23T01:34:42.081Z,47.74
2023-05-23T01:37:12.188Z,47.89
2023-05-23T01:39:42.526Z,48.07
2023-05-23T01:42:12.622Z,48.17
2023-05-23T01:44:42.618Z,48.14
2023-05-23T01:47:13.196Z,48.10
2023-05-23T01:49:45.388Z,48.35
2023-05-23T01:52:15.994Z,48.40
2023-05-23T01:54:45.452Z,48.46
2023-05-23T01:57:14.587Z,48.59
2023-05-23T01:59:44.107Z,48.51
2023-05-23T02:02:14.142Z,48.59
2023-05-23T02:04:44.231Z,48.64
2023-05-23T02:07:12.958Z,48.54
2023-05-23T02:09:44.380Z,48.85
2023-05-23T02:12:17.029Z,48.77
2023-05-23T02:14:45.943Z,48.74
2023-05-23T02:17:17.219Z,49.04
2023-05-23T02:19:47.791Z,48.86
2023-05-23T02:22:16.788Z,49.11
2023-05-23T02:24:45.773Z,49.04
2023-05-23T02:27:15.148Z,49.20
2023-05-23T02:29:47.438Z,49.44
2023-05-23T02:32:18.829Z,49.35
2023-05-23T02:34:50.783Z,49.34
2023-05-23T02:37:20.040Z,49.53
2023-05-23T02:39:50.619Z,49.70
2023-05-23T02:42:20.331Z,49.51
2023-05-23T02:44:51.049Z,49.33
2023-05-23T02:47:20.264Z,49.70
2023-05-23T02:49:50.811Z,49.79
2023-05-23T02:52:20.082Z,50.10
2023-05-23T02:54:48.845Z,50.12
2023-05-23T02:57:19.328Z,50.10
2023-05-23T02:59:48.100Z,50.06
2023-05-23T03:02:17.127Z,50.18
2023-05-23T03:04:48.719Z,49.96
2023-05-23T03:07:27.694Z,50.02
2023-05-23T03:09:58.218Z,50.12
2023-05-23T03:12:29.750Z,50.02
2023-05-23T03:14:58.459Z,50.39
2023-05-23T03:17:27.513Z,50.53
2023-05-23T03:19:58.879Z,50.44
2023-05-23T03:22:29.289Z,50.80
2023-05-23T03:25:00.211Z,50.75
2023-05-23T03:27:29.833Z,50.72
2023-05-23T03:30:00.979Z,50.71
2023-05-23T03:32:30.653Z,50.73
2023-05-23T03:34:59.717Z,50.73
2023-05-23T03:37:28.855Z,50.96
2023-05-23T03:39:59.477Z,51.11
2023-05-23T03:42:29.099Z,51.36
2023-05-23T03:44:58.171Z,51.37
2023-05-23T03:47:27.243Z,51.53
2023-05-23T03:49:57.729Z,51.63
2023-05-23T03:52:27.543Z,51.55
2023-05-23T03:54:56.602Z,51.63
2023-05-23T03:57:29.522Z,51.70
2023-05-23T03:59:59.384Z,51.80
2023-05-23T04:02:30.205Z,51.78
2023-05-23T04:05:01.097Z,51.95
2023-05-23T04:07:30.949Z,51.92
2023-05-23T04:10:00.268Z,51.74
2023-05-23T04:12:31.112Z,51.84
2023-05-23T04:15:00.568Z,51.96
2023-05-23T04:17:31.815Z,51.84
2023-05-23T04:20:02.445Z,51.96
2023-05-23T04:22:33.960Z,51.94
2023-05-23T04:25:03.728Z,51.78
2023-05-23T04:27:40.764Z,51.93
2023-05-23T04:30:10.859Z,52.00
2023-05-23T04:32:43.312Z,51.88
2023-05-23T04:35:14.827Z,51.93
2023-05-23T04:37:45.878Z,52.05
2023-05-23T04:40:17.581Z,52.11
2023-05-23T04:43:10.584Z,52.15
2023-05-23T04:46:05.355Z,52.08
2023-05-23T04:48:45.092Z,52.13
2023-05-23T04:51:14.107Z,52.19
2023-05-23T04:53:54.290Z,52.19
2023-05-23T04:56:28.591Z,52.20
2023-05-23T04:58:58.054Z,52.23
2023-05-23T05:01:30.128Z,52.01
2023-05-23T05:04:01.474Z,52.03
2023-05-23T05:06:31.429Z,51.99
2023-05-23T05:09:02.985Z,51.75
2023-05-23T05:11:32.115Z,51.59
2023-05-23T05:14:02.963Z,51.58
2023-05-23T05:16:32.202Z,51.52
2023-05-23T05:19:03.173Z,51.54
2023-05-23T05:21:34.922Z,51.30
2023-05-23T05:24:04.570Z,51.41
2023-05-23T05:26:34.702Z,51.36
2023-05-23T05:29:04.721Z,51.35
2023-05-23T05:31:34.210Z,51.19
2023-05-23T05:34:04.271Z,51.06
2023-05-23T05:36:46.285Z,51.04
2023-05-23T05:39:16.097Z,50.94
2023-05-23T05:41:45.202Z,50.94
2023-05-23T05:44:17.688Z,50.76
2023-05-23T05:46:48.881Z,50.58
2023-05-23T05:49:17.950Z,50.49
2023-05-23T05:51:48.233Z,50.51
2023-05-23T05:54:19.454Z,50.44
2023-05-23T05:56:50.016Z,50.39
2023-05-23T05:59:20.009Z,50.29
2023-05-23T06:01:51.645Z,50.12
2023-05-23T06:04:20.592Z,49.86
2023-05-23T06:06:49.914Z,49.83
2023-05-23T06:09:20.065Z,49.75
2023-05-23T06:11:50.462Z,49.50
2023-05-23T06:14:19.274Z,49.73
2023-05-23T06:16:50.315Z,49.26
2023-05-23T06:19:20.899Z,49.27
2023-05-23T06:21:51.491Z,49.09
2023-05-23T06:24:22.851Z,48.61
2023-05-23T06:26:51.679Z,48.54
2023-05-23T06:29:20.916Z,48.67
2023-05-23T06:31:50.883Z,48.50
2023-05-23T06:34:20.890Z,48.54
2023-05-23T06:36:51.433Z,48.33
2023-05-23T06:39:23.226Z,47.97
2023-05-23T06:41:52.267Z,48.01
2023-05-23T06:44:22.010Z,47.90
2023-05-23T06:46:57.941Z,47.71
2023-05-23T06:49:27.054Z,47.65
2023-05-23T06:51:56.352Z,47.49
2023-05-23T06:54:25.219Z,47.24
2023-05-23T06:56:54.950Z,47.07
2023-05-23T06:59:23.973Z,46.99
2023-05-23T07:01:53.518Z,46.86
2023-05-23T07:04:22.482Z,46.61
2023-05-23T07:06:53.031Z,46.48
2023-05-23T07:09:22.226Z,46.33
2023-05-23T07:11:52.053Z,45.74
2023-05-23T07:14:21.436Z,45.43
2023-05-23T07:16:52.019Z,45.60
2023-05-23T07:19:21.672Z,45.46
2023-05-23T07:21:53.203Z,45.22
2023-05-23T07:24:23.907Z,45.17
2023-05-23T07:26:57.560Z,45.32
2023-05-23T07:29:27.548Z,44.44
2023-05-23T07:31:57.728Z,44.29
2023-05-23T07:34:27.427Z,44.36
2023-05-23T07:37:01.806Z,43.37
2023-05-23T07:39:35.190Z,42.52
2023-05-23T07:42:04.615Z,42.19
2023-05-23T07:44:34.332Z,41.68
2023-05-23T07:47:05.548Z,41.34
2023-05-23T07:49:34.826Z,40.81
2023-05-23T07:52:03.902Z,40.74
2023-05-23T07:54:35.222Z,40.32
2023-05-23T07:57:04.441Z,39.76
2023-05-23T07:59:33.423Z,39.65
2023-05-23T08:02:02.913Z,39.61
2023-05-23T08:04:32.692Z,38.64
2023-05-23T08:07:05.533Z,38.51
2023-05-23T08:09:54.957Z,38.20
2023-05-23T08:12:24.548Z,37.16
2023-05-23T08:14:59.939Z,36.93
2023-05-23T08:17:35.393Z,35.87
2023-05-23T08:20:05.738Z,34.41
2023-05-23T08:22:35.009Z,34.64
2023-05-23T08:25:04.801Z,35.62
2023-05-23T08:27:36.328Z,35.00
2023-05-23T08:30:10.918Z,33.74
2023-05-23T08:32:40.085Z,32.61
2023-05-23T08:35:10.959Z,31.51
2023-05-23T08:37:46.666Z,32.04
2023-05-23T08:40:26.530Z,31.90
2023-05-23T08:43:06.585Z,31.76
2023-05-23T08:45:36.919Z,31.12
2023-05-23T08:48:09.591Z,30.79
2023-05-23T08:50:43.726Z,30.37
2023-05-23T08:53:20.595Z,29.63
2023-05-23T08:55:54.915Z,29.99
2023-05-23T08:58:29.540Z,29.12
2023-05-23T09:01:00.217Z,29.37
2023-05-23T09:03:30.186Z,28.86
2023-05-23T09:06:14.432Z,28.19
2023-05-23T09:08:46.811Z,26.66
2023-05-23T09:11:16.179Z,27.72
2023-05-23T09:13:46.655Z,28.45
2023-05-23T09:16:20.788Z,29.00
2023-05-23T09:18:58.117Z,28.58
2023-05-23T09:21:27.910Z,28.15
2023-05-23T09:24:02.508Z,27.61
2023-05-23T09:26:32.682Z,27.32
2023-05-23T09:29:05.495Z,27.16
2023-05-23T09:31:35.160Z,27.42
2023-05-23T09:34:05.134Z,28.22
2023-05-23T09:36:35.520Z,28.18
2023-05-23T09:39:08.553Z,28.30
2023-05-23T09:41:37.989Z,28.37
2023-05-23T09:44:08.892Z,27.74
2023-05-23T09:46:41.214Z,27.43
2023-05-23T09:49:20.313Z,27.86
2023-05-23T09:52:00.524Z,27.84
2023-05-23T09:54:29.943Z,27.98
2023-05-23T09:57:01.887Z,27.55
2023-05-23T09:59:32.281Z,27.31
2023-05-23T10:02:02.996Z,27.33
2023-05-23T10:04:33.607Z,27.81
2023-05-23T10:07:23.898Z,27.72
2023-05-23T10:09:57.517Z,27.48
2023-05-23T10:12:40.461Z,27.11
2023-05-23T10:15:10.943Z,27.33
2023-05-23T10:17:39.943Z,27.55
2023-05-23T10:20:12.726Z,27.56
2023-05-23T10:22:42.865Z,27.77
2023-05-23T10:25:12.261Z,27.58
2023-05-23T10:27:42.516Z,27.45
2023-05-23T10:30:12.226Z,27.36
2023-05-23T10:32:41.777Z,27.23
2023-05-23T10:35:19.666Z,27.12
2023-05-23T10:37:54.423Z,27.04
2023-05-23T10:40:32.796Z,27.12
2023-05-23T10:43:04.939Z,26.97
2023-05-23T10:45:44.593Z,26.54
2023-05-23T10:48:23.447Z,27.00
2023-05-23T10:51:08.426Z,27.32
2023-05-23T10:53:39.181Z,26.90
2023-05-23T10:56:08.923Z,26.71
2023-05-23T10:58:39.874Z,26.81
2023-05-23T11:01:10.493Z,27.13
2023-05-23T11:03:51.941Z,27.13
2023-05-23T11:06:45.054Z,27.34
2023-05-23T11:09:20.999Z,27.00
2023-05-23T11:11:55.824Z,27.07
2023-05-23T11:14:35.349Z,26.77
2023-05-23T11:17:13.835Z,26.78
2023-05-23T11:20:01.881Z,26.78
2023-05-23T11:22:31.502Z,26.41
2023-05-23T11:25:01.214Z,26.55
2023-05-23T11:27:38.200Z,26.82
2023-05-23T11:30:16.029Z,26.59
2023-05-23T11:32:55.173Z,26.56
2023-05-23T11:35:26.007Z,26.65
2023-05-23T11:37:58.037Z,26.75
2023-05-23T11:40:37.927Z,27.08
2023-05-23T11:43:07.759Z,27.14
2023-05-23T11:45:37.565Z,27.04
2023-05-23T11:48:12.177Z,26.91
2023-05-23T11:51:00.552Z,27.04
2023-05-23T11:53:30.669Z,26.77
2023-05-23T11:56:02.677Z,26.93
2023-05-23T11:58:41.296Z,26.74
2023-05-23T12:01:11.706Z,26.80
2023-05-23T12:03:49.745Z,26.96
2023-05-23T12:06:20.713Z,26.91
2023-05-23T12:08:52.568Z,26.78
2023-05-23T12:11:26.841Z,26.96
2023-05-23T12:13:57.395Z,26.76
2023-05-23T12:16:26.555Z,26.43
2023-05-23T12:18:58.807Z,26.56
2023-05-23T12:21:29.025Z,26.60
2023-05-23T12:24:00.271Z,26.83
2023-05-23T12:26:31.216Z,27.00
2023-05-23T12:29:03.917Z,26.70
2023-05-23T12:31:33.881Z,26.42
2023-05-23T12:34:03.549Z,26.26
2023-05-23T12:37:24.616Z,26.40
2023-05-23T12:39:55.188Z,26.23
2023-05-23T12:42:24.178Z,26.44
2023-05-23T12:44:55.429Z,26.72
2023-05-23T12:47:25.216Z,26.75
2023-05-23T12:49:55.617Z,26.92
2023-05-23T12:52:25.156Z,27.21
2023-05-23T12:54:56.076Z,26.95
2023-05-23T12:57:27.188Z,26.66
2023-05-23T12:59:56.128Z,26.41
2023-05-23T13:02:25.519Z,26.57
2023-05-23T13:04:55.878Z,26.75
2023-05-23T13:07:25.611Z,26.76
2023-05-23T13:09:54.997Z,26.96
2023-05-23T13:12:25.197Z,27.04
2023-05-23T13:14:54.440Z,26.96
2023-05-23T13:17:23.609Z,26.92
2023-05-23T13:19:54.277Z,27.04
2023-05-23T13:22:23.663Z,26.99
2023-05-23T13:24:53.261Z,27.02
2023-05-23T13:27:22.301Z,27.18
2023-05-23T13:29:51.706Z,27.28
2023-05-23T13:32:20.376Z,27.07
2023-05-23T13:34:51.498Z,27.16
2023-05-23T13:37:22.134Z,27.46
2023-05-23T13:39:51.864Z,27.25
2023-05-23T13:42:21.669Z,27.23
2023-05-23T13:44:51.504Z,27.15
2023-05-23T13:47:20.358Z,27.10
2023-05-23T13:49:51.861Z,27.19
2023-05-23T13:52:21.513Z,27.20
2023-05-23T13:54:51.494Z,27.36
2023-05-23T13:57:20.997Z,27.22
2023-05-23T13:59:50.081Z,27.38
2023-05-23T14:02:20.572Z,27.67
2023-05-23T14:04:50.811Z,27.49
2023-05-23T14:07:20.286Z,27.54
2023-05-23T14:09:49.048Z,27.52
2023-05-23T14:12:19.808Z,27.35
2023-05-23T14:14:49.243Z,27.55
2023-05-23T14:17:20.046Z,27.50
2023-05-23T14:19:52.826Z,27.63
2023-05-23T14:22:21.975Z,27.60
2023-05-23T14:24:52.164Z,27.62
2023-05-23T14:27:20.864Z,27.62
2023-05-23T14:29:50.275Z,27.60
2023-05-23T14:32:20.983Z,27.76
2023-05-23T14:34:50.438Z,27.80
2023-05-23T14:37:20.141Z,27.83
2023-05-23T14:39:50.672Z,27.83
2023-05-23T14:42:20.638Z,27.80
2023-05-23T14:44:49.818Z,27.84
2023-05-23T14:47:19.448Z,27.89
2023-05-23T14:49:49.232Z,28.07
2023-05-23T14:52:18.561Z,28.10
2023-05-23T14:54:48.118Z,28.19
2023-05-23T14:57:17.119Z,28.03
2023-05-23T14:59:47.001Z,28.21
2023-05-23T15:02:16.645Z,28.35
2023-05-23T15:04:46.319Z,28.31
2023-05-23T15:07:18.515Z,28.33
2023-05-23T15:09:48.760Z,28.41
2023-05-23T15:12:19.443Z,28.54
2023-05-23T15:14:50.016Z,28.42
2023-05-23T15:17:25.769Z,28.43
2023-05-23T15:19:58.460Z,28.78
2023-05-23T15:22:36.560Z,28.96
2023-05-23T15:25:08.510Z,29.08
2023-05-23T15:27:39.215Z,29.00
2023-05-23T15:30:08.617Z,29.02
2023-05-23T15:32:37.565Z,28.93
2023-05-23T15:35:10.956Z,28.89
2023-05-23T15:37:42.988Z,29.14
2023-05-23T15:40:12.601Z,29.09
2023-05-23T15:42:42.720Z,29.05
2023-05-23T15:45:11.795Z,29.32
2023-05-23T15:47:41.052Z,28.95
2023-05-23T15:50:12.884Z,29.16
2023-05-23T15:52:44.739Z,29.05
2023-05-23T15:55:14.002Z,28.98
2023-05-23T15:57:44.269Z,29.14
2023-05-23T16:00:13.384Z,29.41
2023-05-23T16:02:43.772Z,29.46
2023-05-23T16:05:12.957Z,29.39
2023-05-23T16:07:42.269Z,29.65
2023-05-23T16:10:11.667Z,29.49
2023-05-23T16:12:40.992Z,29.53
2023-05-23T16:15:10.295Z,29.55
2023-05-23T16:17:39.221Z,29.87
2023-05-23T16:20:11.176Z,29.85
2023-05-23T16:22:42.170Z,30.07
2023-05-23T16:25:13.634Z,30.27
2023-05-23T16:27:44.228Z,30.23
2023-05-23T16:30:13.188Z,30.06
2023-05-23T16:32:43.017Z,30.46
2023-05-23T16:35:50.206Z,30.23
2023-05-23T16:38:19.373Z,30.21
2023-05-23T16:40:49.275Z,30.52
2023-05-23T16:43:18.086Z,30.69
2023-05-23T16:45:48.625Z,30.62
2023-05-23T16:48:19.530Z,30.62
2023-05-23T16:50:48.923Z,30.70
2023-05-23T16:53:20.262Z,30.73
2023-05-23T16:55:50.085Z,31.05
2023-05-23T16:58:21.351Z,31.12
2023-05-23T17:00:50.989Z,31.51
2023-05-23T17:03:21.488Z,31.60
2023-05-23T17:05:50.657Z,31.54
2023-05-23T17:08:20.001Z,31.72
2023-05-23T17:10:49.149Z,31.75
2023-05-23T17:13:18.116Z,31.96
2023-05-23T17:15:48.410Z,31.79
2023-05-23T17:18:17.849Z,32.21
2023-05-23T17:20:47.516Z,32.33
2023-05-23T17:23:17.656Z,32.42
2023-05-23T17:25:48.382Z,32.35
2023-05-23T17:28:19.184Z,32.46
2023-05-23T17:30:48.214Z,32.52
2023-05-23T17:33:17.212Z,32.78
2023-05-23T17:36:13.333Z,33.07
2023-05-23T17:38:43.072Z,33.31
2023-05-23T17:41:12.745Z,33.39
2023-05-23T17:43:44.573Z,33.22
2023-05-23T17:46:15.000Z,33.27
2023-05-23T17:48:47.062Z,33.41
2023-05-23T17:51:17.667Z,33.68
2023-05-23T17:53:52.045Z,33.72
2023-05-23T17:56:25.101Z,33.57
2023-05-23T17:58:54.627Z,33.61
2023-05-23T18:01:25.390Z,33.64
2023-05-23T18:03:54.882Z,33.79
2023-05-23T18:06:24.679Z,33.99
2023-05-23T18:08:57.110Z,34.14
2023-05-23T18:11:27.920Z,34.06
2023-05-23T18:13:56.930Z,34.18
2023-05-23T18:16:25.750Z,34.28
2023-05-23T18:18:57.935Z,34.50
2023-05-23T18:21:27.728Z,34.55
2023-05-23T18:23:57.095Z,34.75
2023-05-23T18:26:26.042Z,34.52
2023-05-23T18:28:56.992Z,34.59
2023-05-23T18:31:28.182Z,34.82
2023-05-23T18:33:57.338Z,34.94
2023-05-23T18:36:30.802Z,35.28
2023-05-23T18:39:02.610Z,35.52
2023-05-23T18:41:32.966Z,35.54
2023-05-23T18:44:02.195Z,35.63
2023-05-23T18:46:33.230Z,35.84
2023-05-23T18:49:05.666Z,36.01
2023-05-23T18:51:35.747Z,35.96
2023-05-23T18:54:04.558Z,36.07
2023-05-23T18:56:36.319Z,36.10
2023-05-23T18:59:05.387Z,36.27
2023-05-23T19:01:34.764Z,36.33
2023-05-23T19:04:04.054Z,36.32
2023-05-23T19:06:33.812Z,36.22
2023-05-23T19:09:04.704Z,36.43
2023-05-23T19:11:34.099Z,36.58
2023-05-23T19:14:04.410Z,36.52
2023-05-23T19:16:34.775Z,36.69
2023-05-23T19:19:07.233Z,36.82
2023-05-23T19:21:37.779Z,36.93
2023-05-23T19:24:08.787Z,36.94
2023-05-23T19:26:38.003Z,36.99
2023-05-23T19:29:06.920Z,36.94
2023-05-23T19:31:38.552Z,37.08
2023-05-23T19:34:09.830Z,37.06
2023-05-23T19:36:41.082Z,37.00
2023-05-23T19:39:12.899Z,37.12
2023-05-23T19:41:42.855Z,37.08
2023-05-23T19:44:13.688Z,37.27
2023-05-23T19:46:43.261Z,37.56
2023-05-23T19:49:18.010Z,37.67
2023-05-23T19:52:05.953Z,37.69
2023-05-23T19:54:37.568Z,37.58
2023-05-23T19:57:12.712Z,37.78
2023-05-23T19:59:47.984Z,37.42
2023-05-23T20:02:18.351Z,37.46
2023-05-23T20:04:48.073Z,37.69
2023-05-23T20:07:25.520Z,38.03
2023-05-23T20:09:56.542Z,38.28
2023-05-23T20:12:25.774Z,38.42
2023-05-23T20:14:55.618Z,38.29
2023-05-23T20:17:26.066Z,38.34
2023-05-23T20:19:57.852Z,38.22
2023-05-23T20:22:27.162Z,38.30
2023-05-23T20:24:56.229Z,38.24
2023-05-23T20:27:25.590Z,38.45
2023-05-23T20:29:56.296Z,38.58
2023-05-23T20:32:25.665Z,38.86
2023-05-23T20:34:56.676Z,38.86
2023-05-23T20:37:28.634Z,39.07
2023-05-23T20:39:58.386Z,39.15
2023-05-23T20:42:29.234Z,39.24
2023-05-23T20:45:00.729Z,39.31
2023-05-23T20:47:29.744Z,39.54
2023-05-23T20:49:59.481Z,39.73
2023-05-23T20:52:28.495Z,39.86
2023-05-23T20:54:58.652Z,40.08
2023-05-23T20:57:30.446Z,40.02
2023-05-23T20:59:59.882Z,40.11
2023-05-23T21:02:30.555Z,39.99
2023-05-23T21:05:01.849Z,40.11
2023-05-23T21:07:32.023Z,39.95
2023-05-23T21:10:01.797Z,39.62
2023-05-23T21:12:31.179Z,39.85
2023-05-23T21:15:00.950Z,39.92
2023-05-23T21:17:29.926Z,40.00
2023-05-23T21:20:02.420Z,39.80
2023-05-23T21:22:31.304Z,39.80
2023-05-23T21:25:01.709Z,39.94
2023-05-23T21:27:30.696Z,40.04
2023-05-23T21:30:03.173Z,39.85
2023-05-23T21:32:32.268Z,40.02
2023-05-23T21:35:05.399Z,40.08
2023-05-23T21:37:34.309Z,40.09
2023-05-23T21:40:05.733Z,40.11
2023-05-23T21:42:37.723Z,40.07
2023-05-23T21:45:08.397Z,40.25
2023-05-23T21:47:37.270Z,40.27
2023-05-23T21:50:06.973Z,40.37
2023-05-23T21:52:36.794Z,40.45
2023-05-23T21:55:06.284Z,40.68
2023-05-23T21:57:36.810Z,40.83
2023-05-23T22:00:12.302Z,40.78
2023-05-23T22:02:45.018Z,40.75
2023-05-23T22:05:14.469Z,40.69
2023-05-23T22:07:45.560Z,40.75
2023-05-23T22:10:16.284Z,40.84
2023-05-23T22:12:46.280Z,40.97
2023-05-23T22:15:15.430Z,40.87
2023-05-23T22:17:46.652Z,40.89
2023-05-23T22:20:17.055Z,41.05
2023-05-23T22:22:46.908Z,41.16
2023-05-23T22:25:17.161Z,41.24
2023-05-23T22:27:45.891Z,41.19
2023-05-23T22:30:14.942Z,41.25
2023-05-23T22:32:43.997Z,41.18
2023-05-23T22:35:15.140Z,41.35
2023-05-23T22:37:45.273Z,41.41
2023-05-23T22:40:14.601Z,41.52
2023-05-23T22:42:43.491Z,41.65
2023-05-23T22:45:13.717Z,41.80
2023-05-23T22:47:43.157Z,41.79
2023-05-23T22:50:13.728Z,41.91
2023-05-23T22:52:43.022Z,42.02
2023-05-23T22:55:11.825Z,42.01
2023-05-23T22:57:40.603Z,42.27
2023-05-23T23:00:11.493Z,42.61
2023-05-23T23:02:40.301Z,42.79
2023-05-23T23:05:12.490Z,43.04
2023-05-23T23:07:41.656Z,43.28
2023-05-23T23:10:11.193Z,43.46
2023-05-23T23:12:42.326Z,43.58
2023-05-23T23:15:11.360Z,43.70
2023-05-23T23:17:40.227Z,43.81
2023-05-23T23:20:10.444Z,43.91
2023-05-23T23:22:40.453Z,44.06
2023-05-23T23:25:11.510Z,43.95
2023-05-23T23:27:42.101Z,44.32
2023-05-23T23:30:13.209Z,44.34
2023-05-23T23:32:44.015Z,44.58
2023-05-23T23:35:15.392Z,44.65
2023-05-23T23:37:45.758Z,44.70
2023-05-23T23:40:17.266Z,44.63
2023-05-23T23:42:46.370Z,44.55
2023-05-23T23:45:16.797Z,44.66
2023-05-23T23:47:46.767Z,44.64
2023-05-23T23:50:17.517Z,44.68
2023-05-23T23:52:46.515Z,44.86
2023-05-23T23:55:16.005Z,44.93
2023-05-23T23:57:47.174Z,45.20
